createdAt,value
2022-07-28T00:00:18.077Z,1.20
2022-07-28T00:02:46.080Z,1.58
2022-07-28T00:06:17.987Z,1.38
2022-07-28T00:08:46.105Z,1.55
2022-07-28T00:11:13.991Z,1.60
2022-07-28T00:14:47.068Z,1.60
2022-07-28T00:17:19.077Z,1.35
2022-07-28T00:19:46.961Z,1.40
2022-07-28T00:22:14.670Z,1.33
2022-07-28T00:24:42.465Z,1.30
2022-07-28T00:27:11.245Z,1.55
2022-07-28T00:29:49.784Z,1.35
2022-07-28T00:32:20.974Z,1.57
2022-07-28T00:34:49.008Z,1.50
2022-07-28T00:37:22.231Z,1.40
2022-07-28T00:39:50.399Z,1.50
2022-07-28T00:42:19.607Z,1.70
2022-07-28T00:44:47.522Z,1.50
2022-07-28T00:47:15.902Z,1.50
2022-07-28T00:49:46.620Z,1.50
2022-07-28T00:52:18.238Z,1.60
2022-07-28T00:54:46.050Z,1.55
2022-07-28T00:57:14.678Z,1.77
2022-07-28T00:59:42.560Z,1.27
2022-07-28T01:02:10.617Z,2.00
2022-07-28T01:04:39.152Z,1.88
2022-07-28T01:07:18.916Z,2.00
2022-07-28T01:09:52.992Z,1.80
2022-07-28T01:12:43.781Z,1.60
2022-07-28T01:15:21.190Z,2.00
2022-07-28T01:17:56.303Z,2.00
2022-07-28T01:20:28.649Z,1.90
2022-07-28T01:23:07.523Z,2.08
2022-07-28T01:25:48.032Z,1.77
2022-07-28T01:28:26.203Z,2.03
2022-07-28T01:30:58.250Z,1.92
2022-07-28T01:33:33.349Z,2.35
2022-07-28T01:36:04.456Z,1.85
2022-07-28T01:38:34.788Z,1.97
2022-07-28T01:41:04.261Z,1.80
2022-07-28T01:43:37.220Z,2.10
2022-07-28T01:46:08.272Z,2.30
2022-07-28T01:48:39.093Z,2.13
2022-07-28T01:51:08.993Z,2.17
2022-07-28T01:53:38.660Z,2.10
2022-07-28T01:56:08.887Z,2.08
2022-07-28T01:58:38.718Z,2.15
2022-07-28T02:01:09.222Z,2.28
2022-07-28T02:03:38.496Z,1.80
2022-07-28T02:06:07.530Z,1.83
2022-07-28T02:08:38.201Z,2.38
2022-07-28T02:11:23.712Z,2.17
2022-07-28T02:13:52.094Z,2.30
2022-07-28T02:16:23.882Z,2.33
2022-07-28T02:18:53.201Z,2.20
2022-07-28T02:21:22.959Z,2.30
2022-07-28T02:23:52.007Z,2.00
2022-07-28T02:26:23.275Z,2.13
2022-07-28T02:28:52.651Z,2.30
2022-07-28T02:31:27.895Z,2.00
2022-07-28T02:34:02.019Z,1.90
2022-07-28T02:36:34.186Z,2.30
2022-07-28T02:39:07.320Z,2.42
2022-07-28T02:41:39.387Z,1.95
2022-07-28T02:44:13.694Z,2.40
2022-07-28T02:46:45.813Z,2.47
2022-07-28T02:49:17.990Z,2.50
2022-07-28T02:51:46.668Z,2.10
2022-07-28T02:54:14.770Z,2.63
2022-07-28T02:56:53.294Z,2.10
2022-07-28T02:59:22.959Z,2.20
2022-07-28T03:01:55.602Z,2.90
2022-07-28T03:04:39.888Z,2.60
2022-07-28T03:07:08.434Z,2.50
2022-07-28T03:09:40.694Z,2.90
2022-07-28T03:12:09.197Z,2.70
2022-07-28T03:14:37.957Z,2.83
2022-07-28T03:17:09.030Z,2.80
2022-07-28T03:19:37.736Z,2.80
2022-07-28T03:22:05.534Z,2.85
2022-07-28T03:24:36.797Z,2.90
2022-07-28T03:27:11.122Z,3.45
2022-07-28T03:29:40.348Z,2.78
2022-07-28T03:32:10.689Z,3.05
2022-07-28T03:34:38.349Z,2.50
2022-07-28T03:37:10.433Z,3.28
2022-07-28T03:39:40.986Z,3.33
2022-07-28T03:42:09.741Z,3.25
2022-07-28T03:44:39.328Z,2.90
2022-07-28T03:47:07.697Z,3.03
2022-07-28T03:49:38.692Z,3.03
2022-07-28T03:52:06.822Z,3.22
2022-07-28T03:54:34.683Z,3.30
2022-07-28T03:57:02.680Z,2.53
2022-07-28T04:00:34.679Z,3.00
2022-07-28T04:03:03.175Z,3.53
2022-07-28T04:05:32.371Z,3.50
2022-07-28T04:08:00.998Z,3.33
2022-07-28T04:10:29.127Z,4.70
2022-07-28T04:12:59.173Z,3.47
2022-07-28T04:15:28.097Z,3.33
2022-07-28T04:17:57.367Z,3.43
2022-07-28T04:20:26.375Z,3.10
2022-07-28T04:22:55.981Z,2.73
2022-07-28T04:25:25.456Z,3.60
2022-07-28T04:27:54.786Z,3.85
2022-07-28T04:30:25.759Z,3.88
2022-07-28T04:32:54.739Z,3.75
2022-07-28T04:35:24.101Z,3.63
2022-07-28T04:37:55.191Z,3.47
2022-07-28T04:40:24.414Z,4.47
2022-07-28T04:42:52.437Z,3.78
2022-07-28T04:45:20.248Z,3.60
2022-07-28T04:47:48.005Z,3.17
2022-07-28T04:50:19.091Z,3.60
2022-07-28T04:52:49.231Z,3.90
2022-07-28T04:55:17.337Z,3.67
2022-07-28T04:57:46.957Z,3.92
2022-07-28T05:00:16.157Z,4.60
2022-07-28T05:02:45.656Z,4.57
2022-07-28T05:05:15.214Z,3.60
2022-07-28T05:07:44.320Z,4.15
2022-07-28T05:10:13.499Z,3.90
2022-07-28T05:12:41.362Z,3.80
2022-07-28T05:15:11.569Z,3.33
2022-07-28T05:17:39.698Z,3.60
2022-07-28T05:20:08.911Z,3.50
2022-07-28T05:22:44.269Z,3.20
2022-07-28T05:25:18.833Z,3.55
2022-07-28T05:27:47.079Z,2.85
2022-07-28T05:30:17.202Z,3.20
2022-07-28T05:32:47.176Z,2.50
2022-07-28T05:35:15.101Z,2.67
2022-07-28T05:37:43.972Z,2.70
2022-07-28T05:40:13.970Z,2.70
2022-07-28T05:42:43.081Z,2.60
2022-07-28T05:45:16.368Z,2.45
2022-07-28T05:47:49.383Z,2.35
2022-07-28T05:50:18.077Z,2.58
2022-07-28T05:52:47.508Z,2.67
2022-07-28T05:55:16.713Z,2.58
2022-07-28T05:57:44.629Z,2.35
2022-07-28T06:00:14.756Z,1.90
2022-07-28T06:02:45.531Z,2.40
2022-07-28T06:05:17.268Z,1.90
2022-07-28T06:07:45.854Z,1.70
2022-07-28T06:10:14.922Z,1.65
2022-07-28T06:12:47.433Z,1.60
2022-07-28T06:15:16.730Z,1.98
2022-07-28T06:17:44.874Z,1.35
2022-07-28T06:20:15.651Z,1.17
2022-07-28T06:22:44.221Z,1.20
2022-07-28T06:25:16.045Z,1.38
2022-07-28T06:27:47.232Z,1.10
2022-07-28T06:30:15.801Z,1.40
2022-07-28T06:32:43.496Z,1.25
2022-07-28T06:35:12.041Z,1.70
2022-07-28T06:37:41.156Z,1.67
2022-07-28T06:40:11.757Z,1.55
2022-07-28T06:42:39.476Z,1.42
2022-07-28T06:45:08.411Z,1.60
2022-07-28T06:47:36.531Z,1.13
2022-07-28T06:50:25.017Z,1.23
2022-07-28T06:52:56.056Z,1.83
2022-07-28T06:55:23.723Z,6.05
2022-07-28T06:57:51.650Z,1.10
2022-07-28T07:00:19.393Z,0.90
2022-07-28T07:02:47.230Z,1.13
2022-07-28T07:05:14.899Z,1.05
2022-07-28T07:07:43.601Z,1.45
2022-07-28T07:10:13.452Z,2.00
2022-07-28T07:12:41.105Z,1.25
2022-07-28T07:15:10.309Z,1.48
2022-07-28T07:17:38.346Z,1.17
2022-07-28T07:20:07.499Z,1.15
2022-07-28T07:22:35.641Z,1.00
2022-07-28T07:25:10.032Z,1.00
2022-07-28T07:27:39.591Z,1.50
2022-07-28T07:30:08.850Z,0.88
2022-07-28T07:32:36.678Z,1.20
2022-07-28T07:35:04.822Z,1.30
2022-07-28T07:37:32.604Z,1.90
2022-07-28T07:40:00.561Z,1.13
2022-07-28T07:42:28.222Z,1.30
2022-07-28T07:44:57.617Z,1.70
2022-07-28T07:47:25.281Z,1.40
2022-07-28T07:49:52.927Z,1.10
2022-07-28T07:52:20.587Z,1.08
2022-07-28T07:54:48.154Z,1.20
2022-07-28T07:57:15.831Z,0.80
2022-07-28T07:59:43.497Z,0.90
2022-07-28T08:02:12.766Z,1.37
2022-07-28T08:04:40.482Z,1.00
2022-07-28T08:07:08.409Z,1.00
2022-07-28T08:09:36.312Z,1.20
2022-07-28T08:12:04.184Z,0.90
2022-07-28T08:14:31.813Z,1.00
2022-07-28T08:16:59.568Z,0.85
2022-07-28T08:19:28.829Z,0.93
2022-07-28T08:21:56.532Z,1.00
2022-07-28T08:24:32.758Z,0.90
2022-07-28T08:27:01.680Z,0.85
2022-07-28T08:29:29.323Z,0.90
2022-07-28T08:31:57.079Z,1.02
2022-07-28T08:34:26.166Z,0.73
2022-07-28T08:37:02.133Z,1.08
2022-07-28T08:39:30.193Z,0.85
2022-07-28T08:42:01.428Z,0.98
2022-07-28T08:44:39.062Z,0.70
2022-07-28T08:47:10.765Z,1.30
2022-07-28T08:49:40.359Z,0.90
2022-07-28T08:52:12.425Z,0.80
2022-07-28T08:54:43.208Z,1.17
2022-07-28T08:57:11.752Z,1.02
2022-07-28T08:59:39.925Z,1.25
2022-07-28T09:02:11.298Z,1.10
2022-07-28T09:04:39.815Z,1.00
2022-07-28T09:07:07.606Z,1.00
2022-07-28T09:09:36.803Z,1.10
2022-07-28T09:12:05.729Z,0.80
2022-07-28T09:14:34.672Z,0.90
2022-07-28T09:17:03.418Z,0.90
2022-07-28T09:19:34.440Z,0.82
2022-07-28T09:22:05.235Z,0.73
2022-07-28T09:24:34.461Z,1.00
2022-07-28T09:27:06.884Z,0.93
2022-07-28T09:29:37.302Z,0.88
2022-07-28T09:32:06.111Z,0.98
2022-07-28T09:34:42.026Z,0.97
2022-07-28T09:37:21.068Z,0.77
2022-07-28T09:39:54.778Z,0.80
2022-07-28T09:42:24.316Z,0.90
2022-07-28T09:45:21.752Z,0.98
2022-07-28T09:48:09.714Z,1.00
2022-07-28T09:50:38.476Z,1.00
2022-07-28T09:53:22.982Z,0.70
2022-07-28T09:55:59.650Z,1.05
2022-07-28T09:58:30.519Z,0.80
2022-07-28T10:01:06.028Z,0.85
2022-07-28T10:03:36.404Z,0.87
2022-07-28T10:06:08.624Z,0.90
2022-07-28T10:08:44.090Z,0.93
2022-07-28T10:11:13.023Z,0.88
2022-07-28T10:13:58.871Z,0.75
2022-07-28T10:16:28.212Z,1.05
2022-07-28T10:18:57.598Z,1.20
2022-07-28T10:21:25.773Z,0.90
2022-07-28T10:23:55.085Z,0.98
2022-07-28T10:26:27.419Z,0.77
2022-07-28T10:28:56.144Z,0.90
2022-07-28T10:31:30.871Z,1.20
2022-07-28T10:34:00.818Z,0.80
2022-07-28T10:36:29.387Z,0.95
2022-07-28T10:39:04.118Z,0.95
2022-07-28T10:41:40.576Z,0.73
2022-07-28T10:44:14.262Z,0.90
2022-07-28T10:46:45.587Z,0.90
2022-07-28T10:49:14.805Z,1.10
2022-07-28T10:52:01.244Z,0.90
2022-07-28T10:54:33.197Z,1.05
2022-07-28T10:57:05.178Z,1.15
2022-07-28T10:59:58.579Z,0.80
2022-07-28T11:02:52.506Z,1.02
2022-07-28T11:05:32.522Z,0.80
2022-07-28T11:08:02.615Z,1.10
2022-07-28T11:10:31.294Z,0.80
2022-07-28T11:13:00.742Z,0.90
2022-07-28T11:15:38.053Z,1.00
2022-07-28T11:18:09.395Z,1.00
2022-07-28T11:21:11.234Z,1.00
2022-07-28T11:23:48.195Z,0.88
2022-07-28T11:26:41.961Z,0.77
2022-07-28T11:29:16.874Z,0.80
2022-07-28T11:31:58.093Z,0.70
2022-07-28T11:34:27.509Z,1.08
2022-07-28T11:37:03.370Z,1.02
2022-07-28T11:39:43.407Z,0.70
2022-07-28T11:42:28.483Z,1.00
2022-07-28T11:44:57.326Z,0.80
2022-07-28T11:47:28.524Z,1.00
2022-07-28T11:50:14.375Z,0.80
2022-07-28T11:52:53.831Z,0.70
2022-07-28T11:55:49.237Z,0.88
2022-07-28T11:58:25.477Z,0.57
2022-07-28T12:01:17.081Z,1.13
2022-07-28T12:03:50.440Z,0.90
2022-07-28T12:06:28.637Z,0.70
2022-07-28T12:08:59.401Z,0.85
2022-07-28T12:11:28.811Z,0.98
2022-07-28T12:14:00.044Z,0.90
2022-07-28T12:16:28.152Z,0.90
2022-07-28T12:18:56.463Z,1.20
2022-07-28T12:21:37.782Z,0.70
2022-07-28T12:24:19.441Z,0.80
2022-07-28T12:26:50.213Z,0.77
2022-07-28T12:29:20.788Z,0.90
2022-07-28T12:31:56.550Z,0.95
2022-07-28T12:34:28.657Z,0.73
2022-07-28T12:37:02.053Z,0.80
2022-07-28T12:39:30.923Z,0.73
2022-07-28T12:42:04.533Z,0.70
2022-07-28T12:44:37.293Z,1.00
2022-07-28T12:47:07.692Z,0.98
2022-07-28T12:49:36.272Z,0.70
2022-07-28T12:52:21.428Z,0.90
2022-07-28T12:54:54.828Z,0.80
2022-07-28T12:57:48.322Z,0.90
2022-07-28T13:00:19.630Z,0.73
2022-07-28T13:02:48.876Z,0.60
2022-07-28T13:05:30.702Z,0.80
2022-07-28T13:08:05.810Z,0.68
2022-07-28T13:10:33.868Z,0.60
2022-07-28T13:13:04.155Z,0.95
2022-07-28T13:15:32.646Z,1.10
2022-07-28T13:18:00.859Z,2.70
2022-07-28T13:20:28.628Z,1.02
2022-07-28T13:22:57.548Z,1.17
2022-07-28T13:25:27.789Z,0.80
2022-07-28T13:27:55.999Z,1.00
2022-07-28T13:30:24.031Z,0.82
2022-07-28T13:32:51.831Z,1.85
2022-07-28T13:35:21.028Z,1.08
2022-07-28T13:37:49.135Z,1.00
2022-07-28T13:40:17.331Z,1.00
2022-07-28T13:42:52.474Z,1.20
2022-07-28T13:45:22.097Z,0.75
2022-07-28T13:47:53.512Z,0.70
2022-07-28T13:50:22.451Z,0.77
2022-07-28T13:52:53.951Z,0.85
2022-07-28T13:55:22.892Z,0.80
2022-07-28T13:57:56.541Z,0.80
2022-07-28T14:00:24.911Z,0.88
2022-07-28T14:02:52.904Z,1.93
2022-07-28T14:05:21.143Z,0.68
2022-07-28T14:07:49.828Z,0.82
2022-07-28T14:10:17.748Z,1.00
2022-07-28T14:12:46.247Z,0.90
2022-07-28T14:15:16.359Z,0.70
2022-07-28T14:17:46.199Z,0.82
2022-07-28T14:20:15.974Z,0.70
2022-07-28T14:22:44.637Z,0.60
2022-07-28T14:25:20.952Z,0.70
2022-07-28T14:27:49.563Z,0.60
2022-07-28T14:30:19.319Z,0.80
2022-07-28T14:32:47.289Z,0.87
2022-07-28T14:35:15.681Z,0.82
2022-07-28T14:40:32.455Z,0.70
2022-07-28T14:43:00.686Z,0.80
2022-07-28T14:45:30.958Z,0.63
2022-07-28T14:47:59.130Z,0.65
2022-07-28T14:50:28.080Z,0.77
2022-07-28T14:52:57.242Z,1.20
2022-07-28T14:55:25.691Z,1.02
2022-07-28T14:57:55.084Z,0.90
2022-07-28T15:00:25.191Z,1.10
2022-07-28T15:02:55.172Z,0.73
2022-07-28T15:05:23.674Z,0.80
2022-07-28T15:07:52.271Z,0.70
2022-07-28T15:10:21.630Z,0.95
2022-07-28T15:12:50.436Z,0.90
2022-07-28T15:15:18.332Z,0.70
2022-07-28T15:17:46.102Z,0.80
2022-07-28T15:20:15.708Z,0.77
2022-07-28T15:22:43.665Z,1.00
2022-07-28T15:25:11.350Z,0.70
2022-07-28T15:27:43.004Z,0.90
2022-07-28T15:30:14.131Z,2.63
2022-07-28T15:32:57.138Z,1.00
2022-07-28T15:36:26.846Z,0.70
2022-07-28T15:38:59.511Z,1.00
2022-07-28T15:41:28.000Z,1.03
2022-07-28T15:43:56.226Z,0.95
2022-07-28T15:46:24.108Z,0.75
2022-07-28T15:48:52.177Z,0.82
2022-07-28T15:51:22.694Z,0.80
2022-07-28T15:54:00.558Z,1.07
2022-07-28T15:56:29.394Z,0.90
2022-07-28T15:58:57.883Z,0.90
2022-07-28T16:01:27.238Z,1.00
2022-07-28T16:03:55.411Z,1.33
2022-07-28T16:06:23.313Z,0.90
2022-07-28T16:08:51.120Z,1.13
2022-07-28T16:11:23.373Z,0.95
2022-07-28T16:13:51.298Z,0.95
2022-07-28T16:16:19.110Z,0.82
2022-07-28T16:18:47.675Z,0.73
2022-07-28T16:22:25.784Z,1.52
2022-07-28T16:24:53.999Z,1.07
2022-07-28T16:27:23.550Z,1.08
2022-07-28T16:29:51.398Z,1.00
2022-07-28T16:32:19.912Z,1.77
2022-07-28T16:34:48.256Z,0.93
2022-07-28T16:37:19.312Z,1.00
2022-07-28T16:39:51.682Z,0.80
2022-07-28T16:42:19.371Z,0.80
2022-07-28T16:44:48.589Z,1.00
2022-07-28T16:47:16.808Z,0.80
2022-07-28T16:49:46.367Z,0.90
2022-07-28T16:52:15.203Z,1.13
2022-07-28T16:54:43.185Z,1.30
2022-07-28T16:57:11.468Z,0.80
2022-07-28T16:59:48.550Z,0.90
2022-07-28T17:02:20.177Z,0.82
2022-07-28T17:04:49.055Z,0.73
2022-07-28T17:07:17.225Z,0.70
2022-07-28T17:09:45.311Z,0.80
2022-07-28T17:12:13.188Z,1.27
2022-07-28T17:14:40.863Z,0.80
2022-07-28T17:17:09.286Z,0.90
2022-07-28T17:19:46.661Z,1.20
2022-07-28T17:22:15.852Z,0.80
2022-07-28T17:24:43.849Z,3.70
2022-07-28T17:30:01.861Z,1.00
2022-07-28T17:32:29.696Z,0.93
2022-07-28T17:35:02.807Z,0.77
2022-07-28T17:37:31.611Z,1.13
2022-07-28T17:40:00.954Z,1.40
2022-07-28T17:42:34.387Z,0.70
2022-07-28T17:45:02.255Z,1.20
2022-07-28T17:47:35.932Z,0.88
2022-07-28T17:50:07.203Z,1.00
2022-07-28T17:52:35.139Z,1.00
2022-07-28T17:55:20.261Z,0.90
2022-07-28T17:57:52.989Z,0.70
2022-07-28T18:00:21.745Z,1.10
2022-07-28T18:02:50.626Z,1.33
2022-07-28T18:05:21.139Z,1.10
2022-07-28T18:07:51.077Z,1.07
2022-07-28T18:10:24.634Z,1.15
2022-07-28T18:12:54.838Z,1.13
2022-07-28T18:15:24.543Z,1.10
2022-07-28T18:17:55.436Z,1.08
2022-07-28T18:20:29.077Z,0.98
2022-07-28T18:22:57.911Z,1.20
2022-07-28T18:25:28.897Z,1.30
2022-07-28T18:27:58.416Z,1.58
2022-07-28T18:30:27.638Z,1.10
2022-07-28T18:32:55.790Z,1.15
2022-07-28T18:35:25.644Z,1.20
2022-07-28T18:37:53.434Z,1.23
2022-07-28T18:40:23.333Z,1.15
2022-07-28T18:42:52.831Z,1.20
2022-07-28T18:45:20.963Z,1.30
2022-07-28T18:47:48.811Z,1.08
2022-07-28T18:50:30.571Z,0.98
2022-07-28T18:53:01.056Z,1.13
2022-07-28T18:55:29.668Z,1.30
2022-07-28T18:57:57.725Z,1.08
2022-07-28T19:00:25.689Z,1.75
2022-07-28T19:02:53.540Z,1.30
2022-07-28T19:05:21.318Z,1.38
2022-07-28T19:07:50.073Z,1.20
2022-07-28T19:10:20.291Z,1.30
2022-07-28T19:12:51.071Z,1.30
2022-07-28T19:15:19.033Z,1.30
2022-07-28T19:17:46.895Z,1.30
2022-07-28T19:20:34.529Z,1.30
2022-07-28T19:23:05.298Z,1.60
2022-07-28T19:25:36.014Z,1.40
2022-07-28T19:28:04.323Z,1.50
2022-07-28T19:30:33.099Z,1.20
2022-07-28T19:33:01.386Z,1.30
2022-07-28T19:35:29.087Z,1.00
2022-07-28T19:38:00.196Z,1.20
2022-07-28T19:40:29.618Z,1.40
2022-07-28T19:42:58.741Z,1.23
2022-07-28T19:45:26.829Z,1.63
2022-07-28T19:47:55.036Z,1.20
2022-07-28T19:50:23.997Z,1.25
2022-07-28T19:52:52.700Z,1.40
2022-07-28T19:55:21.799Z,2.50
2022-07-28T19:57:49.657Z,1.10
2022-07-28T20:00:19.294Z,1.20
2022-07-28T20:02:48.013Z,1.77
2022-07-28T20:05:15.911Z,1.30
2022-07-28T20:07:43.623Z,1.10
2022-07-28T20:10:11.751Z,1.38
2022-07-28T20:12:39.672Z,1.38
2022-07-28T20:15:09.261Z,0.88
2022-07-28T20:17:39.870Z,1.08
2022-07-28T20:20:09.376Z,1.13
2022-07-28T20:22:37.378Z,0.88
2022-07-28T20:25:09.278Z,1.00
2022-07-28T20:27:40.452Z,1.52
2022-07-28T20:30:09.889Z,1.17
2022-07-28T20:32:42.134Z,1.00
2022-07-28T20:35:11.093Z,0.90
2022-07-28T20:37:39.459Z,0.98
2022-07-28T20:40:08.500Z,1.20
2022-07-28T20:42:37.963Z,1.10
2022-07-28T20:45:06.514Z,1.00
2022-07-28T20:47:34.675Z,1.00
2022-07-28T20:50:06.908Z,0.90
2022-07-28T20:52:35.038Z,0.90
2022-07-28T20:55:04.557Z,1.20
2022-07-28T20:57:32.345Z,1.10
2022-07-28T21:00:00.228Z,1.03
2022-07-28T21:02:28.411Z,1.10
2022-07-28T21:04:56.212Z,1.02
2022-07-28T21:08:04.577Z,1.10
2022-07-28T21:10:14.441Z,1.30
2022-07-28T21:12:43.643Z,0.90
2022-07-28T21:15:12.776Z,1.07
2022-07-28T21:17:40.405Z,1.10
2022-07-28T21:20:08.975Z,1.25
2022-07-28T21:22:41.731Z,1.08
2022-07-28T21:25:10.440Z,1.10
2022-07-28T21:27:52.143Z,0.98
2022-07-28T21:30:27.647Z,0.90
2022-07-28T21:32:56.575Z,1.00
2022-07-28T21:35:26.469Z,1.30
2022-07-28T21:37:56.702Z,1.30
2022-07-28T21:40:24.511Z,1.10
2022-07-28T21:42:52.774Z,1.20
2022-07-28T21:45:21.262Z,1.10
2022-07-28T21:47:49.683Z,1.00
2022-07-28T21:50:18.514Z,1.03
2022-07-28T21:52:46.160Z,1.05
2022-07-28T21:55:15.537Z,1.33
2022-07-28T21:57:43.339Z,1.10
2022-07-28T22:00:12.898Z,1.17
2022-07-28T22:02:41.100Z,1.10
2022-07-28T22:05:10.695Z,1.13
2022-07-28T22:07:38.602Z,1.30
2022-07-28T22:10:08.193Z,1.08
2022-07-28T22:12:37.211Z,1.10
2022-07-28T22:15:05.333Z,0.90
2022-07-28T22:17:34.022Z,1.25
2022-07-28T22:20:02.593Z,1.00
2022-07-28T22:22:30.278Z,1.00
2022-07-28T22:24:58.629Z,1.53
2022-07-28T22:27:27.173Z,0.90
2022-07-28T22:29:58.230Z,0.98
2022-07-28T22:32:29.003Z,0.95
2022-07-28T22:34:58.472Z,1.10
2022-07-28T22:37:27.322Z,0.82
2022-07-28T22:39:55.113Z,1.27
2022-07-28T22:42:23.180Z,1.00
2022-07-28T22:44:51.268Z,0.93
2022-07-28T22:47:21.048Z,1.23
2022-07-28T22:49:49.278Z,1.10
2022-07-28T22:52:18.743Z,1.30
2022-07-28T22:54:46.773Z,0.90
2022-07-28T22:57:14.956Z,0.97
2022-07-28T22:59:46.833Z,1.10
2022-07-28T23:02:20.658Z,0.98
2022-07-28T23:04:51.911Z,0.90
2022-07-28T23:07:19.906Z,1.15
2022-07-28T23:10:08.874Z,1.20
2022-07-28T23:12:37.177Z,1.10
2022-07-28T23:15:06.458Z,0.82
2022-07-28T23:17:36.319Z,0.95
2022-07-28T23:20:07.002Z,1.13
2022-07-28T23:22:34.802Z,1.10
2022-07-28T23:25:03.737Z,1.30
2022-07-28T23:27:31.589Z,0.90
2022-07-28T23:30:00.142Z,1.10
2022-07-28T23:32:28.137Z,0.80
2022-07-28T23:34:57.324Z,0.95
2022-07-28T23:37:25.207Z,1.07
2022-07-28T23:39:53.621Z,1.02
2022-07-28T23:42:22.046Z,0.82
2022-07-28T23:44:50.063Z,0.87
2022-07-28T23:47:18.057Z,1.08
2022-07-28T23:49:46.001Z,0.90
2022-07-28T23:52:15.300Z,0.80
2022-07-28T23:54:43.176Z,1.10
2022-07-28T23:57:11.471Z,1.00
2022-07-28T23:59:39.358Z,1.00
